x

Cape San Martin - 55nm West Nw Of Morro Bay, Ca (46028) Wave Buoy

8:50am - Sat 18th Nov 2017 All times are PST. -8 hours from GMT.

  • Sig Wave height 5.6ft
  • Swell Direction
  • Peak Period 11s
  • Average Period 7s
  • Wind
    2mph, 4mph gusts
  • Sea Temp 59°f
  • Air Temp 60°f
  • Sea Pressure 1022.3mb
  • Cape San Martin - 55nm West Nw Of Morro Bay, Ca
  • Cape San Martin - 55nm West Nw Of Morro Bay, Ca

More Historic Weather Station data

Upgrade to MSW Pro to gain access to the past 30 days of data for over 8000 Wavebouys and Weather Stations around the globe.

Join

Comparision Forecast

View Surf forecast
   
Sat 11/18 8:50am 5.5ft 11s 7s 2 4 mph 1022.3mb 59f 60f
7:50am 5.5ft 11s 7s  -  2 mph 1021.7mb 59f 60f
6:50am 5.5ft 11s 7s 2 4 mph 1021.4mb 59f 58f
5:50am 5.5ft 11s 7s 4 4 mph 1020.9mb 59f 58f
4:50am 6ft 11s 7s 4 4 mph 1020.8mb 59f 58f
3:50am 6ft 11s 7s 7 9 mph 1020.8mb 59f 59f
2:50am 6ft 11s 7s 4 4 mph 1020.8mb 60f 59f
1:50am 6ft 11s 7s 2 4 mph 1020.8mb 59f 60f
12:50am 6.5ft 12s 8s 2 7 mph 1020.9mb 59f 60f
Fri 11/17 11:50pm 6.5ft 12s 8s 7 9 mph 1020.7mb 59f 59f
10:50pm 7.5ft 11s 8s 9 9 mph 1020.7mb 59f 59f
9:50pm 8ft 11s 7s 13 16 mph 1020.4mb 59f 59f
8:50pm 9ft 11s 7s 18 20 mph 1019.8mb 59f 59f
7:50pm 8.5ft 10s 7s 20 25 mph 1019.5mb 59f 59f
6:50pm 8ft 11s 7s 22 27 mph 1019.3mb 59f 59f
5:50pm 8ft 11s 7s 22 25 mph 1019.4mb 59f 59f
4:50pm 8.5ft 11s 7s 20 25 mph 1019mb 59f 59f
3:50pm 7ft 11s 7s 20 22 mph 1018.9mb 59f 59f
2:50pm 7ft 11s 7s 22 27 mph 1018.7mb 59f 59f
1:50pm 7ft 11s 7s 20 27 mph 1019.3mb 59f 59f
12:50pm 6ft 11s 6s 20 25 mph 1019.7mb 59f 59f
11:50am 6.5ft 12s 6s 22 25 mph 1020mb 59f 59f
10:50am 7ft 12s 7s 25 29 mph 1020mb 59f 59f
9:50am 6.5ft 12s 7s 25 29 mph 1019.6mb 59f 58f
8:50am 7.5ft 12s 7s 18 22 mph 1019.6mb 59f 58f
7:50am 7ft 12s 7s 22 25 mph 1018.8mb 59f 58f
6:50am 7ft 13s 8s 18 22 mph 1018.3mb 59f 58f
5:50am 7.5ft 12s 7s 18 22 mph 1017.4mb 59f 58f
4:50am 7.5ft 13s 8s 18 22 mph 1017.1mb 60f 57f
3:50am 8ft 12s 8s 18 22 mph 1017mb 60f 58f
2:50am 7.5ft 13s 9s 13 16 mph 1016.8mb 60f 59f
1:50am 8.5ft 11s 9s 11 13 mph 1016.1mb 60f 60f
12:50am 9ft 13s 9s 9 13 mph 1015.5mb 60f 60f
Thu 11/16 11:50pm 8ft 11s 9s 9 11 mph 1015.1mb 60f 60f
10:50pm 8ft 12s 9s 7 9 mph 1014.8mb 60f 61f
9:50pm 9ft 12s 9s 9 11 mph 1014.7mb 60f 61f
8:50pm 9ft 11s 9s 9 13 mph 1014.2mb 60f 61f
7:50pm 7ft 11s 8s 11 13 mph 1014mb 59f 61f
6:50pm 7ft 12s 8s 11 16 mph 1013.7mb 59f 61f
5:50pm 7ft 12s 8s 13 16 mph 1013.4mb 60f 61f
4:50pm 7.5ft 13s 8s 13 16 mph 1013.4mb 60f 61f
3:50pm 7ft 12s 8s 13 16 mph 1012.9mb 59f 61f
2:50pm 8ft 13s 8s 16 20 mph 1012.6mb 59f 61f
1:50pm 7.5ft 13s 8s 11 16 mph 1013.8mb 59f 61f
12:50pm 8ft 13s 9s 11 16 mph 1013.5mb 59f 61f
11:50am 7ft 13s 8s 13 18 mph 1014.1mb 59f 60f
10:50am 8ft 13s 9s 13 18 mph 1014.6mb 59f 60f
9:50am 7.5ft 13s 9s 16 18 mph 1014.2mb 60f 60f
8:50am 7.5ft 12s 10s 13 16 mph 1014.3mb 60f 60f
7:50am 8ft 12s 10s 13 16 mph 1014mb 59f 60f
6:50am 7ft 11s 9s 11 16 mph 1013.7mb 60f 60f
5:50am 7ft 13s 10s 7 11 mph 1013.6mb 60f 60f
4:50am 6ft 12s 9s 9 11 mph 1013.5mb 60f 60f
3:50am 6.5ft 11s 9s 7 11 mph 1013.5mb 60f 60f
2:50am 6ft 11s 9s 7 9 mph 1013.9mb 60f 61f
1:50am 5.5ft 11s 9s 4 4 mph 1014.2mb 60f 61f
12:50am 6ft 11s 10s 7 9 mph 1014.8mb 60f 61f
Wed 11/15 11:50pm 5.5ft 11s 10s 7 7 mph 1014.9mb 60f 60f
10:50pm 5ft 11s 9s 9 9 mph 1015mb 60f 61f
9:50pm 5ft 12s 9s 7 9 mph 1014.9mb 60f 60f
8:50pm 5.5ft 12s 9s 7 9 mph 1015.1mb 60f 60f
7:50pm 5.5ft 11s 9s 7 9 mph 1014.4mb 60f 60f
6:50pm 5.5ft 11s 9s 4 7 mph 1014.9mb 60f 60f
5:50pm 5.5ft 11s 9s 4 4 mph 1015.1mb 60f 60f
4:50pm 6ft 11s 9s  -  2 mph 1015.2mb 60f 61f
3:50pm 6ft 11s 8s  -  2 mph 1015mb 60f 61f
2:50pm 6.5ft 10s 8s 4 4 mph 1015.2mb 60f 60f
1:50pm 6.5ft 11s 9s 7 9 mph 1015.5mb 60f 60f
12:50pm 7ft 11s 9s 7 9 mph 1015.4mb 60f 60f
11:50am 7ft 11s 9s 7 9 mph 1015.5mb 60f 60f
10:50am 7ft 11s 9s 2 4 mph 1016mb 60f 60f
9:50am 6.5ft 12s 9s 7 11 mph 1016.6mb 60f 59f
8:50am 8ft 11s 9s 7 9 mph 1016.5mb 60f 59f
7:50am 7ft 11s 9s 7 11 mph 1016.2mb 60f 59f
6:50am 6.5ft 12s 8s 9 11 mph 1016.1mb 59f 59f
5:50am 7ft 12s 8s 9 11 mph 1015.9mb 60f 59f
4:50am 8ft 12s 8s 11 16 mph 1016.5mb 60f 59f
3:50am 8.5ft 12s 8s 16 18 mph 1016.9mb 60f 60f
2:50am 7ft 11s 8s 16 20 mph 1017.7mb 60f 60f
1:50am 8ft 11s 8s 13 18 mph 1017.7mb 60f 60f
12:50am 9ft 12s 9s 16 18 mph 1018.1mb 59f 60f
Tue 11/14 11:50pm 9.5ft 12s 9s 16 20 mph 1018.5mb 59f 60f
10:50pm 9ft 11s 9s 13 16 mph 1018.7mb 59f 60f
9:50pm 8.5ft 11s 8s 13 18 mph 1018.8mb 59f 59f
8:50pm 8ft 13s 8s 16 20 mph 1019.5mb 59f 59f
7:50pm 8.5ft 12s 8s 16 20 mph 1019.7mb 59f 60f
6:50pm 9ft 12s 9s 16 18 mph 1019.6mb 59f 60f